Aviation Digital Data Service (ADDS)

Output produced by METARs form (1829 UTC 19 April 2019)
found at http://www.aviationweather.gov/metar/data/
 
Forecast for: OPLA (LAHORE (CIV/MIL), PK)
Text: TAF OPLA 191545Z 1918/2024 30004KT 4000 FU NSC TX33/2010Z TN18/2001Z
Forecast period: 1800 UTC 19 April 2019 to 0600 UTC 20 April 2019
Forecast type: FROM: standard forecast or significant change
Winds: from the WNW (300 degrees) at 5 MPH (4 knots; 2.1 m/s)
Visibility: 2.49 miles (4.01 km)
Ceiling: unknown
Clouds: missing
Weather: FU  (smoke)
Text: TEMPO 2001/2004 2000 FU SCT200
Forecast period: 0100 to 0400 UTC 20 April 2019
Forecast type: TEMPORARY: The following changes expected for less than half the time period
Visibility: 1.24 miles (2.00 km)
Ceiling: at least 12,000 feet AGL
Clouds: scattered clouds at 20000 feet AGL
Weather: FU  (smoke)
Text: FM200600 25006KT 5000 HZ SCT100
Forecast period: 0600 UTC 20 April 2019 to 0000 UTC 21 April 2019
Forecast type: FROM: standard forecast or significant change
Winds: from the WSW (250 degrees) at 7 MPH (6 knots; 3.1 m/s)
Visibility: 3 miles (5 km)
Ceiling: at least 12,000 feet AGL
Clouds: scattered clouds at 10000 feet AGL
Weather: HZ  (haze)